sensor_id;sensor_type;location;lat;lon;timestamp;temperature;humidity
64654;DHT22;51065;48.884;12.598;2023-05-09T00:00:14;11.40;99.90
64654;DHT22;51065;48.884;12.598;2023-05-09T00:02:40;11.30;99.90
64654;DHT22;51065;48.884;12.598;2023-05-09T00:05:10;11.10;99.90
64654;DHT22;51065;48.884;12.598;2023-05-09T00:07:36;11.00;99.90
64654;DHT22;51065;48.884;12.598;2023-05-09T00:10:02;10.80;99.90
64654;DHT22;51065;48.884;12.598;2023-05-09T00:12:28;10.70;99.90
64654;DHT22;51065;48.884;12.598;2023-05-09T00:14:54;10.50;99.90
64654;DHT22;51065;48.884;12.598;2023-05-09T00:17:23;10.40;99.90
64654;DHT22;51065;48.884;12.598;2023-05-09T00:19:49;10.20;99.90
64654;DHT22;51065;48.884;12.598;2023-05-09T00:22:19;10.10;99.90
64654;DHT22;51065;48.884;12.598;2023-05-09T00:24:48;10.00;99.90
64654;DHT22;51065;48.884;12.598;2023-05-09T00:27:14;10.00;99.90
64654;DHT22;51065;48.884;12.598;2023-05-09T00:29:40;10.00;99.90
64654;DHT22;51065;48.884;12.598;2023-05-09T00:32:06;9.90;99.90
64654;DHT22;51065;48.884;12.598;2023-05-09T00:34:32;9.90;99.90
64654;DHT22;51065;48.884;12.598;2023-05-09T00:36:57;9.90;99.90
64654;DHT22;51065;48.884;12.598;2023-05-09T00:39:23;9.90;99.90
64654;DHT22;51065;48.884;12.598;2023-05-09T00:41:49;9.90;99.90
64654;DHT22;51065;48.884;12.598;2023-05-09T00:44:15;9.80;99.90
64654;DHT22;51065;48.884;12.598;2023-05-09T00:46:40;9.70;99.90
64654;DHT22;51065;48.884;12.598;2023-05-09T00:49:06;9.70;99.90
64654;DHT22;51065;48.884;12.598;2023-05-09T00:51:32;9.70;99.90
64654;DHT22;51065;48.884;12.598;2023-05-09T00:53:58;9.70;99.90
64654;DHT22;51065;48.884;12.598;2023-05-09T00:56:24;9.70;99.90
64654;DHT22;51065;48.884;12.598;2023-05-09T00:58:49;9.80;99.90
64654;DHT22;51065;48.884;12.598;2023-05-09T01:01:16;9.90;99.90
64654;DHT22;51065;48.884;12.598;2023-05-09T01:03:41;9.90;99.90
64654;DHT22;51065;48.884;12.598;2023-05-09T01:06:19;10.00;99.90
64654;DHT22;51065;48.884;12.598;2023-05-09T01:09:05;10.00;99.90
64654;DHT22;51065;48.884;12.598;2023-05-09T01:11:38;10.00;99.90
64654;DHT22;51065;48.884;12.598;2023-05-09T01:14:18;10.00;99.90
64654;DHT22;51065;48.884;12.598;2023-05-09T01:16:58;10.10;99.90
64654;DHT22;51065;48.884;12.598;2023-05-09T01:22:30;10.20;99.90
64654;DHT22;51065;48.884;12.598;2023-05-09T01:28:18;10.20;99.90
64654;DHT22;51065;48.884;12.598;2023-05-09T01:30:50;10.20;99.90
64654;DHT22;51065;48.884;12.598;2023-05-09T01:33:18;10.10;99.90
64654;DHT22;51065;48.884;12.598;2023-05-09T01:35:48;10.10;99.90
64654;DHT22;51065;48.884;12.598;2023-05-09T01:38:18;10.00;99.90
64654;DHT22;51065;48.884;12.598;2023-05-09T01:40:48;9.90;99.90
64654;DHT22;51065;48.884;12.598;2023-05-09T01:43:17;9.90;99.90
64654;DHT22;51065;48.884;12.598;2023-05-09T01:45:44;9.90;99.90
64654;DHT22;51065;48.884;12.598;2023-05-09T01:48:10;9.80;99.90
64654;DHT22;51065;48.884;12.598;2023-05-09T01:50:36;9.70;99.90
64654;DHT22;51065;48.884;12.598;2023-05-09T01:53:05;9.70;99.90
64654;DHT22;51065;48.884;12.598;2023-05-09T01:55:33;9.70;99.90
64654;DHT22;51065;48.884;12.598;2023-05-09T01:58:04;9.80;99.90
64654;DHT22;51065;48.884;12.598;2023-05-09T02:00:32;9.80;99.90
64654;DHT22;51065;48.884;12.598;2023-05-09T02:02:58;9.80;99.90
64654;DHT22;51065;48.884;12.598;2023-05-09T02:05:28;9.80;99.90
64654;DHT22;51065;48.884;12.598;2023-05-09T02:07:55;9.70;99.90
64654;DHT22;51065;48.884;12.598;2023-05-09T02:10:23;9.70;99.90
64654;DHT22;51065;48.884;12.598;2023-05-09T02:12:50;9.70;99.90
64654;DHT22;51065;48.884;12.598;2023-05-09T02:15:16;9.60;99.90
64654;DHT22;51065;48.884;12.598;2023-05-09T02:17:41;9.60;99.90
64654;DHT22;51065;48.884;12.598;2023-05-09T02:20:08;9.50;99.90
64654;DHT22;51065;48.884;12.598;2023-05-09T02:22:37;9.50;99.90
64654;DHT22;51065;48.884;12.598;2023-05-09T02:25:04;9.40;99.90
64654;DHT22;51065;48.884;12.598;2023-05-09T02:27:32;9.30;99.90
64654;DHT22;51065;48.884;12.598;2023-05-09T02:30:02;9.40;99.90
64654;DHT22;51065;48.884;12.598;2023-05-09T02:32:30;9.30;99.90
64654;DHT22;51065;48.884;12.598;2023-05-09T02:34:57;9.40;99.90
64654;DHT22;51065;48.884;12.598;2023-05-09T02:37:24;9.40;99.90
64654;DHT22;51065;48.884;12.598;2023-05-09T02:39:50;9.40;99.90
64654;DHT22;51065;48.884;12.598;2023-05-09T02:42:20;9.40;99.90
64654;DHT22;51065;48.884;12.598;2023-05-09T02:44:46;9.50;99.90
64654;DHT22;51065;48.884;12.598;2023-05-09T02:47:12;9.50;99.90
64654;DHT22;51065;48.884;12.598;2023-05-09T02:49:37;9.50;99.90
64654;DHT22;51065;48.884;12.598;2023-05-09T02:52:03;9.40;99.90
64654;DHT22;51065;48.884;12.598;2023-05-09T02:54:28;9.40;99.90
64654;DHT22;51065;48.884;12.598;2023-05-09T02:56:54;9.30;99.90
64654;DHT22;51065;48.884;12.598;2023-05-09T02:59:20;9.20;99.90
64654;DHT22;51065;48.884;12.598;2023-05-09T03:01:45;9.10;99.90
64654;DHT22;51065;48.884;12.598;2023-05-09T03:04:11;9.00;99.90
64654;DHT22;51065;48.884;12.598;2023-05-09T03:06:37;8.90;99.90
64654;DHT22;51065;48.884;12.598;2023-05-09T03:09:02;8.80;99.90
64654;DHT22;51065;48.884;12.598;2023-05-09T03:11:28;8.80;99.90
64654;DHT22;51065;48.884;12.598;2023-05-09T03:13:55;8.70;99.90
64654;DHT22;51065;48.884;12.598;2023-05-09T03:16:20;8.60;99.90
64654;DHT22;51065;48.884;12.598;2023-05-09T03:18:46;8.50;99.90
64654;DHT22;51065;48.884;12.598;2023-05-09T03:21:12;8.40;99.90
64654;DHT22;51065;48.884;12.598;2023-05-09T03:23:38;8.30;99.90
64654;DHT22;51065;48.884;12.598;2023-05-09T03:26:04;8.10;99.90
64654;DHT22;51065;48.884;12.598;2023-05-09T03:28:30;8.00;99.90
64654;DHT22;51065;48.884;12.598;2023-05-09T03:30:55;7.90;99.90
64654;DHT22;51065;48.884;12.598;2023-05-09T03:33:21;7.80;99.90
64654;DHT22;51065;48.884;12.598;2023-05-09T03:35:46;7.70;99.90
64654;DHT22;51065;48.884;12.598;2023-05-09T03:38:12;7.60;99.90
64654;DHT22;51065;48.884;12.598;2023-05-09T03:40:37;7.60;99.90
64654;DHT22;51065;48.884;12.598;2023-05-09T03:43:03;7.50;99.90
64654;DHT22;51065;48.884;12.598;2023-05-09T03:45:28;7.50;99.90
64654;DHT22;51065;48.884;12.598;2023-05-09T03:47:54;7.50;99.90
64654;DHT22;51065;48.884;12.598;2023-05-09T03:50:19;7.40;99.90
64654;DHT22;51065;48.884;12.598;2023-05-09T03:52:45;7.40;99.90
64654;DHT22;51065;48.884;12.598;2023-05-09T03:55:10;7.40;99.90
64654;DHT22;51065;48.884;12.598;2023-05-09T03:57:36;7.60;99.90
64654;DHT22;51065;48.884;12.598;2023-05-09T04:00:03;7.80;99.90
64654;DHT22;51065;48.884;12.598;2023-05-09T04:02:32;8.00;99.90
64654;DHT22;51065;48.884;12.598;2023-05-09T04:04:58;8.00;99.90
64654;DHT22;51065;48.884;12.598;2023-05-09T04:07:24;8.10;99.90
64654;DHT22;51065;48.884;12.598;2023-05-09T04:09:50;8.00;99.90
64654;DHT22;51065;48.884;12.598;2023-05-09T04:12:16;8.10;99.90
64654;DHT22;51065;48.884;12.598;2023-05-09T04:14:41;8.10;99.90
64654;DHT22;51065;48.884;12.598;2023-05-09T04:17:08;8.10;99.90
64654;DHT22;51065;48.884;12.598;2023-05-09T04:19:34;8.10;99.90
64654;DHT22;51065;48.884;12.598;2023-05-09T04:22:00;8.20;99.90
64654;DHT22;51065;48.884;12.598;2023-05-09T04:24:25;8.20;99.90
64654;DHT22;51065;48.884;12.598;2023-05-09T04:26:51;8.20;99.90
64654;DHT22;51065;48.884;12.598;2023-05-09T04:29:16;8.30;99.90
64654;DHT22;51065;48.884;12.598;2023-05-09T04:31:42;8.40;99.90
64654;DHT22;51065;48.884;12.598;2023-05-09T04:34:07;8.40;99.90
64654;DHT22;51065;48.884;12.598;2023-05-09T04:36:33;8.50;99.90
64654;DHT22;51065;48.884;12.598;2023-05-09T04:38:58;9.00;99.90
64654;DHT22;51065;48.884;12.598;2023-05-09T04:41:24;9.70;99.90
64654;DHT22;51065;48.884;12.598;2023-05-09T04:43:50;10.50;99.90
64654;DHT22;51065;48.884;12.598;2023-05-09T04:46:16;11.40;99.90
64654;DHT22;51065;48.884;12.598;2023-05-09T04:48:42;12.10;99.90
64654;DHT22;51065;48.884;12.598;2023-05-09T04:51:07;12.80;99.90
64654;DHT22;51065;48.884;12.598;2023-05-09T04:53:33;13.30;99.90
64654;DHT22;51065;48.884;12.598;2023-05-09T04:55:58;13.80;99.90
64654;DHT22;51065;48.884;12.598;2023-05-09T04:58:24;14.20;99.90
64654;DHT22;51065;48.884;12.598;2023-05-09T05:00:51;14.60;99.90
64654;DHT22;51065;48.884;12.598;2023-05-09T05:03:17;14.90;99.90
64654;DHT22;51065;48.884;12.598;2023-05-09T05:05:42;15.20;99.90
64654;DHT22;51065;48.884;12.598;2023-05-09T05:08:08;15.30;99.90
64654;DHT22;51065;48.884;12.598;2023-05-09T05:10:33;15.30;99.90
64654;DHT22;51065;48.884;12.598;2023-05-09T05:12:59;15.50;99.40
64654;DHT22;51065;48.884;12.598;2023-05-09T05:15:24;15.50;99.90
64654;DHT22;51065;48.884;12.598;2023-05-09T05:17:51;15.70;96.10
64654;DHT22;51065;48.884;12.598;2023-05-09T05:20:17;15.80;94.20
64654;DHT22;51065;48.884;12.598;2023-05-09T05:22:42;15.30;95.20
64654;DHT22;51065;48.884;12.598;2023-05-09T05:25:09;15.50;96.30
64654;DHT22;51065;48.884;12.598;2023-05-09T05:27:34;15.70;93.00
64654;DHT22;51065;48.884;12.598;2023-05-09T05:30:00;15.50;92.20
64654;DHT22;51065;48.884;12.598;2023-05-09T05:32:26;15.30;88.70
64654;DHT22;51065;48.884;12.598;2023-05-09T05:34:51;15.10;85.40
64654;DHT22;51065;48.884;12.598;2023-05-09T05:37:17;15.00;87.30
64654;DHT22;51065;48.884;12.598;2023-05-09T05:39:42;14.80;88.60
64654;DHT22;51065;48.884;12.598;2023-05-09T05:42:08;14.90;88.50
64654;DHT22;51065;48.884;12.598;2023-05-09T05:44:33;15.20;90.20
64654;DHT22;51065;48.884;12.598;2023-05-09T05:46:59;15.60;84.10
64654;DHT22;51065;48.884;12.598;2023-05-09T05:49:27;16.00;89.20
64654;DHT22;51065;48.884;12.598;2023-05-09T05:51:52;16.10;75.40
64654;DHT22;51065;48.884;12.598;2023-05-09T05:54:18;15.70;84.20
64654;DHT22;51065;48.884;12.598;2023-05-09T05:56:43;15.60;83.90
64654;DHT22;51065;48.884;12.598;2023-05-09T05:59:09;15.60;88.40
64654;DHT22;51065;48.884;12.598;2023-05-09T06:01:34;15.50;89.00
64654;DHT22;51065;48.884;12.598;2023-05-09T06:04:00;15.30;92.90
64654;DHT22;51065;48.884;12.598;2023-05-09T06:06:26;15.40;87.60
64654;DHT22;51065;48.884;12.598;2023-05-09T06:08:51;15.60;84.40
64654;DHT22;51065;48.884;12.598;2023-05-09T06:11:17;15.50;76.90
64654;DHT22;51065;48.884;12.598;2023-05-09T06:13:43;15.70;74.50
64654;DHT22;51065;48.884;12.598;2023-05-09T06:16:09;15.70;74.70
64654;DHT22;51065;48.884;12.598;2023-05-09T06:18:35;15.70;75.70
64654;DHT22;51065;48.884;12.598;2023-05-09T06:21:02;15.70;74.20
64654;DHT22;51065;48.884;12.598;2023-05-09T06:23:28;15.60;72.70
64654;DHT22;51065;48.884;12.598;2023-05-09T06:25:54;15.70;78.30
64654;DHT22;51065;48.884;12.598;2023-05-09T06:28:19;15.90;70.30
64654;DHT22;51065;48.884;12.598;2023-05-09T06:30:45;16.30;68.30
64654;DHT22;51065;48.884;12.598;2023-05-09T06:33:10;16.60;65.30
64654;DHT22;51065;48.884;12.598;2023-05-09T06:35:36;16.90;65.70
64654;DHT22;51065;48.884;12.598;2023-05-09T06:38:01;16.60;61.40
64654;DHT22;51065;48.884;12.598;2023-05-09T06:40:27;16.60;65.80
64654;DHT22;51065;48.884;12.598;2023-05-09T06:42:52;16.50;62.50
64654;DHT22;51065;48.884;12.598;2023-05-09T06:45:18;16.60;62.00
64654;DHT22;51065;48.884;12.598;2023-05-09T06:47:43;16.50;63.00
64654;DHT22;51065;48.884;12.598;2023-05-09T06:50:09;16.70;63.00
64654;DHT22;51065;48.884;12.598;2023-05-09T06:52:34;16.90;65.70
64654;DHT22;51065;48.884;12.598;2023-05-09T06:55:01;17.30;64.40
64654;DHT22;51065;48.884;12.598;2023-05-09T06:57:26;17.20;56.50
64654;DHT22;51065;48.884;12.598;2023-05-09T06:59:52;17.30;59.70
64654;DHT22;51065;48.884;12.598;2023-05-09T07:02:17;17.30;58.00
64654;DHT22;51065;48.884;12.598;2023-05-09T07:04:43;17.30;56.90
64654;DHT22;51065;48.884;12.598;2023-05-09T07:07:08;17.20;60.60
64654;DHT22;51065;48.884;12.598;2023-05-09T07:09:34;17.30;60.40
64654;DHT22;51065;48.884;12.598;2023-05-09T07:11:59;17.90;57.10
64654;DHT22;51065;48.884;12.598;2023-05-09T07:14:26;17.70;54.40
64654;DHT22;51065;48.884;12.598;2023-05-09T07:16:51;17.00;57.70
64654;DHT22;51065;48.884;12.598;2023-05-09T07:19:17;17.20;59.60
64654;DHT22;51065;48.884;12.598;2023-05-09T07:21:42;17.80;60.40
64654;DHT22;51065;48.884;12.598;2023-05-09T07:24:08;17.60;55.50
64654;DHT22;51065;48.884;12.598;2023-05-09T07:26:36;17.40;58.10
64654;DHT22;51065;48.884;12.598;2023-05-09T07:29:02;18.10;56.00
64654;DHT22;51065;48.884;12.598;2023-05-09T07:31:28;17.90;55.60
64654;DHT22;51065;48.884;12.598;2023-05-09T07:33:54;17.60;54.50
64654;DHT22;51065;48.884;12.598;2023-05-09T07:36:23;17.60;55.40
64654;DHT22;51065;48.884;12.598;2023-05-09T07:38:48;17.90;53.90
64654;DHT22;51065;48.884;12.598;2023-05-09T07:41:17;17.80;58.20
64654;DHT22;51065;48.884;12.598;2023-05-09T07:43:42;18.20;57.70
64654;DHT22;51065;48.884;12.598;2023-05-09T07:46:08;18.50;54.70
64654;DHT22;51065;48.884;12.598;2023-05-09T07:48:33;18.40;53.00
64654;DHT22;51065;48.884;12.598;2023-05-09T07:50:59;19.00;53.60
64654;DHT22;51065;48.884;12.598;2023-05-09T07:53:24;19.20;49.80
64654;DHT22;51065;48.884;12.598;2023-05-09T07:55:50;18.80;51.10
64654;DHT22;51065;48.884;12.598;2023-05-09T07:58:16;19.00;51.00
64654;DHT22;51065;48.884;12.598;2023-05-09T08:00:42;19.10;54.60
64654;DHT22;51065;48.884;12.598;2023-05-09T08:03:13;19.40;51.10
64654;DHT22;51065;48.884;12.598;2023-05-09T08:05:38;19.30;53.10
64654;DHT22;51065;48.884;12.598;2023-05-09T08:08:04;19.20;51.70
64654;DHT22;51065;48.884;12.598;2023-05-09T08:10:30;19.30;52.50
64654;DHT22;51065;48.884;12.598;2023-05-09T08:12:56;19.20;49.90
64654;DHT22;51065;48.884;12.598;2023-05-09T08:15:22;18.90;50.90
64654;DHT22;51065;48.884;12.598;2023-05-09T08:17:47;19.20;53.30
64654;DHT22;51065;48.884;12.598;2023-05-09T08:20:13;19.40;53.10
64654;DHT22;51065;48.884;12.598;2023-05-09T08:22:39;19.20;51.20
64654;DHT22;51065;48.884;12.598;2023-05-09T08:25:06;19.50;50.30
64654;DHT22;51065;48.884;12.598;2023-05-09T08:27:32;19.70;51.90
64654;DHT22;51065;48.884;12.598;2023-05-09T08:29:58;19.40;52.20
64654;DHT22;51065;48.884;12.598;2023-05-09T08:32:23;19.80;50.50
64654;DHT22;51065;48.884;12.598;2023-05-09T08:34:49;19.60;49.50
64654;DHT22;51065;48.884;12.598;2023-05-09T08:37:15;19.30;50.20
64654;DHT22;51065;48.884;12.598;2023-05-09T08:39:40;19.20;50.40
64654;DHT22;51065;48.884;12.598;2023-05-09T08:42:07;19.60;53.70
64654;DHT22;51065;48.884;12.598;2023-05-09T08:44:33;20.00;49.90
64654;DHT22;51065;48.884;12.598;2023-05-09T08:47:01;19.50;50.60
64654;DHT22;51065;48.884;12.598;2023-05-09T08:49:26;19.90;51.80
64654;DHT22;51065;48.884;12.598;2023-05-09T08:51:53;20.10;54.30
64654;DHT22;51065;48.884;12.598;2023-05-09T08:54:20;20.10;49.50
64654;DHT22;51065;48.884;12.598;2023-05-09T08:56:46;20.50;50.80
64654;DHT22;51065;48.884;12.598;2023-05-09T08:59:13;20.60;51.10
64654;DHT22;51065;48.884;12.598;2023-05-09T09:01:39;20.70;47.50
64654;DHT22;51065;48.884;12.598;2023-05-09T09:04:06;21.10;49.60
64654;DHT22;51065;48.884;12.598;2023-05-09T09:06:33;20.70;47.80
64654;DHT22;51065;48.884;12.598;2023-05-09T09:08:59;20.90;47.30
64654;DHT22;51065;48.884;12.598;2023-05-09T09:11:28;20.30;48.60
64654;DHT22;51065;48.884;12.598;2023-05-09T09:13:55;20.40;48.40
64654;DHT22;51065;48.884;12.598;2023-05-09T09:16:24;20.50;51.50
64654;DHT22;51065;48.884;12.598;2023-05-09T09:18:51;21.10;47.00
64654;DHT22;51065;48.884;12.598;2023-05-09T09:21:19;21.20;46.30
64654;DHT22;51065;48.884;12.598;2023-05-09T09:23:46;21.50;46.40
64654;DHT22;51065;48.884;12.598;2023-05-09T09:26:12;20.60;44.50
64654;DHT22;51065;48.884;12.598;2023-05-09T09:28:38;20.80;48.80
64654;DHT22;51065;48.884;12.598;2023-05-09T09:31:26;21.70;46.40
64654;DHT22;51065;48.884;12.598;2023-05-09T09:34:01;21.20;46.30
64654;DHT22;51065;48.884;12.598;2023-05-09T09:36:29;21.00;47.80
64654;DHT22;51065;48.884;12.598;2023-05-09T09:39:01;21.30;44.40
64654;DHT22;51065;48.884;12.598;2023-05-09T09:41:30;21.70;45.50
64654;DHT22;51065;48.884;12.598;2023-05-09T09:43:56;21.40;46.50
64654;DHT22;51065;48.884;12.598;2023-05-09T09:46:22;21.30;45.10
64654;DHT22;51065;48.884;12.598;2023-05-09T09:48:49;21.30;44.40
64654;DHT22;51065;48.884;12.598;2023-05-09T09:51:18;21.30;42.60
64654;DHT22;51065;48.884;12.598;2023-05-09T09:53:45;21.70;42.30
64654;DHT22;51065;48.884;12.598;2023-05-09T09:56:11;21.50;42.40
64654;DHT22;51065;48.884;12.598;2023-05-09T09:58:37;21.20;43.10
64654;DHT22;51065;48.884;12.598;2023-05-09T10:01:07;21.60;44.80
64654;DHT22;51065;48.884;12.598;2023-05-09T10:03:41;22.30;44.00
64654;DHT22;51065;48.884;12.598;2023-05-09T10:06:11;21.90;43.30
64654;DHT22;51065;48.884;12.598;2023-05-09T10:08:38;22.20;43.40
64654;DHT22;51065;48.884;12.598;2023-05-09T10:11:04;22.20;42.40
64654;DHT22;51065;48.884;12.598;2023-05-09T10:13:30;21.80;45.20
64654;DHT22;51065;48.884;12.598;2023-05-09T10:15:59;22.30;44.40
64654;DHT22;51065;48.884;12.598;2023-05-09T10:18:29;22.60;45.60
64654;DHT22;51065;48.884;12.598;2023-05-09T10:20:58;22.60;44.70
64654;DHT22;51065;48.884;12.598;2023-05-09T10:23:28;22.80;43.40
64654;DHT22;51065;48.884;12.598;2023-05-09T10:26:26;23.20;42.20
64654;DHT22;51065;48.884;12.598;2023-05-09T10:28:56;22.30;43.90
64654;DHT22;51065;48.884;12.598;2023-05-09T10:31:26;22.10;45.00
64654;DHT22;51065;48.884;12.598;2023-05-09T10:33:53;21.70;44.40
64654;DHT22;51065;48.884;12.598;2023-05-09T10:36:21;22.50;46.90
64654;DHT22;51065;48.884;12.598;2023-05-09T10:38:48;22.60;44.10
64654;DHT22;51065;48.884;12.598;2023-05-09T10:41:15;21.70;44.60
64654;DHT22;51065;48.884;12.598;2023-05-09T10:43:41;22.10;45.40
64654;DHT22;51065;48.884;12.598;2023-05-09T10:46:08;22.70;43.50
64654;DHT22;51065;48.884;12.598;2023-05-09T10:48:35;22.60;44.30
64654;DHT22;51065;48.884;12.598;2023-05-09T10:51:02;22.50;44.50
64654;DHT22;51065;48.884;12.598;2023-05-09T10:56:31;23.00;43.80
64654;DHT22;51065;48.884;12.598;2023-05-09T10:58:57;23.50;46.20
64654;DHT22;51065;48.884;12.598;2023-05-09T11:01:33;23.50;43.00
64654;DHT22;51065;48.884;12.598;2023-05-09T11:04:07;23.20;45.10
64654;DHT22;51065;48.884;12.598;2023-05-09T11:09:22;23.50;45.40
64654;DHT22;51065;48.884;12.598;2023-05-09T11:11:54;23.80;44.80
64654;DHT22;51065;48.884;12.598;2023-05-09T11:17:06;24.50;45.40
64654;DHT22;51065;48.884;12.598;2023-05-09T11:19:35;24.90;41.40
64654;DHT22;51065;48.884;12.598;2023-05-09T11:22:10;24.50;41.60
64654;DHT22;51065;48.884;12.598;2023-05-09T11:24:37;23.20;44.00
64654;DHT22;51065;48.884;12.598;2023-05-09T11:27:13;22.90;45.30
64654;DHT22;51065;48.884;12.598;2023-05-09T11:29:57;23.70;45.90
64654;DHT22;51065;48.884;12.598;2023-05-09T11:32:29;24.00;45.90
64654;DHT22;51065;48.884;12.598;2023-05-09T11:35:09;24.20;44.70
64654;DHT22;51065;48.884;12.598;2023-05-09T11:37:45;24.70;44.50
64654;DHT22;51065;48.884;12.598;2023-05-09T11:40:14;24.90;42.10
64654;DHT22;51065;48.884;12.598;2023-05-09T11:42:41;24.80;43.80
64654;DHT22;51065;48.884;12.598;2023-05-09T11:45:09;24.40;42.20
64654;DHT22;51065;48.884;12.598;2023-05-09T11:47:38;24.20;43.60
64654;DHT22;51065;48.884;12.598;2023-05-09T11:50:06;24.50;44.00
64654;DHT22;51065;48.884;12.598;2023-05-09T11:52:32;24.60;43.80
64654;DHT22;51065;48.884;12.598;2023-05-09T11:54:58;25.10;44.50
64654;DHT22;51065;48.884;12.598;2023-05-09T11:57:24;25.40;41.60
64654;DHT22;51065;48.884;12.598;2023-05-09T11:59:49;25.20;42.20
64654;DHT22;51065;48.884;12.598;2023-05-09T12:02:15;25.60;41.30
64654;DHT22;51065;48.884;12.598;2023-05-09T12:04:41;25.60;41.80
64654;DHT22;51065;48.884;12.598;2023-05-09T12:07:06;25.90;41.90
64654;DHT22;51065;48.884;12.598;2023-05-09T12:09:35;25.40;44.10
64654;DHT22;51065;48.884;12.598;2023-05-09T12:12:10;24.80;42.90
64654;DHT22;51065;48.884;12.598;2023-05-09T12:14:36;25.00;44.20
64654;DHT22;51065;48.884;12.598;2023-05-09T12:17:03;24.40;43.70
64654;DHT22;51065;48.884;12.598;2023-05-09T12:19:29;24.50;45.20
64654;DHT22;51065;48.884;12.598;2023-05-09T12:21:58;24.70;45.60
64654;DHT22;51065;48.884;12.598;2023-05-09T12:24:28;24.90;46.60
64654;DHT22;51065;48.884;12.598;2023-05-09T12:26:55;24.40;45.00
64654;DHT22;51065;48.884;12.598;2023-05-09T12:29:22;24.20;45.50
64654;DHT22;51065;48.884;12.598;2023-05-09T12:31:49;24.30;46.40
64654;DHT22;51065;48.884;12.598;2023-05-09T12:34:15;24.60;45.50
64654;DHT22;51065;48.884;12.598;2023-05-09T12:36:43;23.90;44.20
64654;DHT22;51065;48.884;12.598;2023-05-09T12:39:18;23.30;45.40
64654;DHT22;51065;48.884;12.598;2023-05-09T12:41:50;23.40;47.50
64654;DHT22;51065;48.884;12.598;2023-05-09T12:44:23;23.70;45.60
64654;DHT22;51065;48.884;12.598;2023-05-09T12:47:07;23.50;45.40
64654;DHT22;51065;48.884;12.598;2023-05-09T12:49:35;23.80;48.00
64654;DHT22;51065;48.884;12.598;2023-05-09T12:52:01;24.20;45.90
64654;DHT22;51065;48.884;12.598;2023-05-09T12:54:28;24.30;46.30
64654;DHT22;51065;48.884;12.598;2023-05-09T12:56:56;24.00;45.60
64654;DHT22;51065;48.884;12.598;2023-05-09T12:59:23;24.30;44.40
64654;DHT22;51065;48.884;12.598;2023-05-09T13:01:59;24.50;45.30
64654;DHT22;51065;48.884;12.598;2023-05-09T13:04:26;24.50;45.20
64654;DHT22;51065;48.884;12.598;2023-05-09T13:06:56;23.70;44.20
64654;DHT22;51065;48.884;12.598;2023-05-09T13:09:25;23.90;47.10
64654;DHT22;51065;48.884;12.598;2023-05-09T13:11:51;24.20;44.40
64654;DHT22;51065;48.884;12.598;2023-05-09T13:14:19;24.50;45.20
64654;DHT22;51065;48.884;12.598;2023-05-09T13:16:46;24.80;44.60
64654;DHT22;51065;48.884;12.598;2023-05-09T13:19:11;24.40;43.20
64654;DHT22;51065;48.884;12.598;2023-05-09T13:21:37;24.10;45.80
64654;DHT22;51065;48.884;12.598;2023-05-09T13:24:04;23.70;46.00
64654;DHT22;51065;48.884;12.598;2023-05-09T13:26:29;24.00;47.10
64654;DHT22;51065;48.884;12.598;2023-05-09T13:28:55;24.60;45.80
64654;DHT22;51065;48.884;12.598;2023-05-09T13:31:21;24.20;44.80
64654;DHT22;51065;48.884;12.598;2023-05-09T13:33:48;24.40;46.20
64654;DHT22;51065;48.884;12.598;2023-05-09T13:36:14;24.20;47.20
64654;DHT22;51065;48.884;12.598;2023-05-09T13:38:40;24.30;45.70
64654;DHT22;51065;48.884;12.598;2023-05-09T13:41:06;23.80;45.70
64654;DHT22;51065;48.884;12.598;2023-05-09T13:43:33;23.90;47.00
64654;DHT22;51065;48.884;12.598;2023-05-09T13:45:58;24.00;46.40
64654;DHT22;51065;48.884;12.598;2023-05-09T13:48:25;23.90;45.20
64654;DHT22;51065;48.884;12.598;2023-05-09T13:50:51;23.70;45.00
64654;DHT22;51065;48.884;12.598;2023-05-09T13:53:16;23.80;44.90
64654;DHT22;51065;48.884;12.598;2023-05-09T13:55:42;23.40;45.00
64654;DHT22;51065;48.884;12.598;2023-05-09T13:58:15;23.40;46.50
64654;DHT22;51065;48.884;12.598;2023-05-09T14:00:41;23.30;45.30
64654;DHT22;51065;48.884;12.598;2023-05-09T14:03:07;23.50;46.80
64654;DHT22;51065;48.884;12.598;2023-05-09T14:05:33;23.70;47.40
64654;DHT22;51065;48.884;12.598;2023-05-09T14:07:58;23.60;46.50
64654;DHT22;51065;48.884;12.598;2023-05-09T14:10:25;23.20;46.70
64654;DHT22;51065;48.884;12.598;2023-05-09T14:12:51;23.20;48.00
64654;DHT22;51065;48.884;12.598;2023-05-09T14:15:17;23.40;47.10
64654;DHT22;51065;48.884;12.598;2023-05-09T14:17:43;23.30;45.30
64654;DHT22;51065;48.884;12.598;2023-05-09T14:20:09;22.80;46.30
64654;DHT22;51065;48.884;12.598;2023-05-09T14:22:35;23.20;48.00
64654;DHT22;51065;48.884;12.598;2023-05-09T14:25:00;23.70;46.70
64654;DHT22;51065;48.884;12.598;2023-05-09T14:27:26;23.60;46.20
64654;DHT22;51065;48.884;12.598;2023-05-09T14:29:52;23.60;47.00
64654;DHT22;51065;48.884;12.598;2023-05-09T14:32:17;23.70;44.80
64654;DHT22;51065;48.884;12.598;2023-05-09T14:34:43;23.30;45.80
64654;DHT22;51065;48.884;12.598;2023-05-09T14:37:10;23.50;46.70
64654;DHT22;51065;48.884;12.598;2023-05-09T14:39:42;23.60;45.20
64654;DHT22;51065;48.884;12.598;2023-05-09T14:42:08;23.60;46.40
64654;DHT22;51065;48.884;12.598;2023-05-09T14:44:39;23.70;44.20
64654;DHT22;51065;48.884;12.598;2023-05-09T14:47:06;23.80;45.00
64654;DHT22;51065;48.884;12.598;2023-05-09T14:49:31;23.90;44.60
64654;DHT22;51065;48.884;12.598;2023-05-09T14:51:57;23.70;43.00
64654;DHT22;51065;48.884;12.598;2023-05-09T14:54:23;23.20;44.30
64654;DHT22;51065;48.884;12.598;2023-05-09T14:56:48;23.20;43.70
64654;DHT22;51065;48.884;12.598;2023-05-09T14:59:14;23.20;44.90
64654;DHT22;51065;48.884;12.598;2023-05-09T15:01:40;23.10;45.60
64654;DHT22;51065;48.884;12.598;2023-05-09T15:04:06;22.70;45.50
64654;DHT22;51065;48.884;12.598;2023-05-09T15:06:31;22.60;46.20
64654;DHT22;51065;48.884;12.598;2023-05-09T15:08:57;22.60;48.00
64654;DHT22;51065;48.884;12.598;2023-05-09T15:11:23;22.60;48.90
64654;DHT22;51065;48.884;12.598;2023-05-09T15:13:51;22.70;48.40
64654;DHT22;51065;48.884;12.598;2023-05-09T15:16:17;22.50;48.90
64654;DHT22;51065;48.884;12.598;2023-05-09T15:18:42;22.60;49.60
64654;DHT22;51065;48.884;12.598;2023-05-09T15:21:13;22.50;51.20
64654;DHT22;51065;48.884;12.598;2023-05-09T15:23:38;22.40;48.40
64654;DHT22;51065;48.884;12.598;2023-05-09T15:26:04;22.40;48.30
64654;DHT22;51065;48.884;12.598;2023-05-09T15:28:33;22.50;47.60
64654;DHT22;51065;48.884;12.598;2023-05-09T15:30:59;22.50;49.60
64654;DHT22;51065;48.884;12.598;2023-05-09T15:33:25;22.80;47.90